<?xml version='1.0' encoding='UTF-8'?><gpx version="1.1" creator="JPX - https://github.com/jenetics/jpx" xmlns="http://www.topografix.com/GPX/1/1"><trk><trkseg><trkpt lat="45.150345" lon="1.5569383"><ele>143.0</ele><time>2026-03-23T12:37:44.055Z</time></trkpt><trkpt lat="45.150415" lon="1.5568317"><ele>143.0</ele><time>2026-03-23T12:37:46.057Z</time></trkpt><trkpt lat="45.150485" lon="1.5567583"><ele>143.0</ele><time>2026-03-23T12:37:48.055Z</time></trkpt><trkpt lat="45.15058" lon="1.55672"><ele>143.0</ele><time>2026-03-23T12:37:51.827Z</time></trkpt><trkpt lat="45.150755" lon="1.55679"><ele>141.66666666666666</ele><time>2026-03-23T12:37:54.053Z</time></trkpt><trkpt lat="45.15083" lon="1.55681"><ele>140.33333333333331</ele><time>2026-03-23T12:37:55.058Z</time></trkpt><trkpt lat="45.1509117" lon="1.5568417"><ele>139.0</ele><time>2026-03-23T12:37:56.059Z</time></trkpt><trkpt lat="45.150995" lon="1.55686"><ele>137.66666666666666</ele><time>2026-03-23T12:37:57.055Z</time></trkpt><trkpt lat="45.1510617" lon="1.5568683"><ele>136.33333333333334</ele><time>2026-03-23T12:37:58.057Z</time></trkpt><trkpt lat="45.1511733" lon="1.5569017"><ele>135.0</ele><time>2026-03-23T12:38:00.055Z</time></trkpt><trkpt lat="45.1512383" lon="1.55692"><ele>135.0</ele><time>2026-03-23T12:38:01.059Z</time></trkpt><trkpt lat="45.1513583" lon="1.5569667"><ele>135.0</ele><time>2026-03-23T12:38:03.067Z</time></trkpt><trkpt lat="45.151475" lon="1.5570183"><ele>135.0</ele><time>2026-03-23T12:38:05.054Z</time></trkpt><trkpt lat="45.151585" lon="1.5570717"><ele>135.0</ele><time>2026-03-23T12:38:07.054Z</time></trkpt><trkpt lat="45.1516967" lon="1.5570867"><ele>135.16666666666666</ele><time>2026-03-23T12:38:09.055Z</time></trkpt><trkpt lat="45.1518117" lon="1.557055"><ele>135.33333333333334</ele><time>2026-03-23T12:38:11.058Z</time></trkpt><trkpt lat="45.1519367" lon="1.5570267"><ele>135.5</ele><time>2026-03-23T12:38:13.056Z</time></trkpt><trkpt lat="45.1520017" lon="1.5570233"><ele>135.66666666666669</ele><time>2026-03-23T12:38:14.064Z</time></trkpt><trkpt lat="45.1520683" lon="1.55702"><ele>135.83333333333334</ele><time>2026-03-23T12:38:15.056Z</time></trkpt><trkpt lat="45.1521367" lon="1.5570167"><ele>136.0</ele><time>2026-03-23T12:38:16.057Z</time></trkpt><trkpt lat="45.1522067" lon="1.5570133"><ele>135.42857142857142</ele><time>2026-03-23T12:38:17.058Z</time></trkpt><trkpt lat="45.152275" lon="1.5570117"><ele>134.85714285714286</ele><time>2026-03-23T12:38:18.055Z</time></trkpt><trkpt lat="45.1523433" lon="1.5570117"><ele>134.28571428571428</ele><time>2026-03-23T12:38:19.055Z</time></trkpt><trkpt lat="45.1524117" lon="1.5570133"><ele>133.71428571428572</ele><time>2026-03-23T12:38:20.054Z</time></trkpt><trkpt lat="45.1524783" lon="1.5570217"><ele>133.14285714285714</ele><time>2026-03-23T12:38:21.057Z</time></trkpt><trkpt lat="45.152545" lon="1.55704"><ele>132.57142857142856</ele><time>2026-03-23T12:38:22.062Z</time></trkpt><trkpt lat="45.15261" lon="1.55707"><ele>132.0</ele><time>2026-03-23T12:38:23.058Z</time></trkpt><trkpt lat="45.15267" lon="1.557105"><ele>131.42857142857142</ele><time>2026-03-23T12:38:24.054Z</time></trkpt><trkpt lat="45.1527333" lon="1.5571417"><ele>130.85714285714286</ele><time>2026-03-23T12:38:25.055Z</time></trkpt><trkpt lat="45.1527933" lon="1.55718"><ele>130.28571428571428</ele><time>2026-03-23T12:38:26.058Z</time></trkpt><trkpt lat="45.1528533" lon="1.5572183"><ele>129.71428571428572</ele><time>2026-03-23T12:38:27.058Z</time></trkpt><trkpt lat="45.152915" lon="1.5572567"><ele>129.14285714285714</ele><time>2026-03-23T12:38:28.056Z</time></trkpt><trkpt lat="45.1529733" lon="1.5572967"><ele>128.57142857142856</ele><time>2026-03-23T12:38:29.056Z</time></trkpt><trkpt lat="45.1530333" lon="1.557335"><ele>128.0</ele><time>2026-03-23T12:38:30.063Z</time></trkpt><trkpt lat="45.1530933" lon="1.5573717"><ele>128.0</ele><time>2026-03-23T12:38:31.054Z</time></trkpt><trkpt lat="45.1531517" lon="1.5574083"><ele>128.0</ele><time>2026-03-23T12:38:32.058Z</time></trkpt><trkpt lat="45.1532633" lon="1.55748"><ele>128.0</ele><time>2026-03-23T12:38:34.056Z</time></trkpt><trkpt lat="45.1533767" lon="1.557545"><ele>128.0</ele><time>2026-03-23T12:38:36.055Z</time></trkpt><trkpt lat="45.153495" lon="1.5576167"><ele>128.0</ele><time>2026-03-23T12:38:38.061Z</time></trkpt><trkpt lat="45.1535533" lon="1.557655"><ele>128.20000000000002</ele><time>2026-03-23T12:38:39.058Z</time></trkpt><trkpt lat="45.1536633" lon="1.5577383"><ele>128.4</ele><time>2026-03-23T12:38:41.056Z</time></trkpt><trkpt lat="45.1537183" lon="1.557785"><ele>128.60000000000002</ele><time>2026-03-23T12:38:42.056Z</time></trkpt><trkpt lat="45.1538217" lon="1.55788"><ele>128.8</ele><time>2026-03-23T12:38:44.058Z</time></trkpt><trkpt lat="45.1539017" lon="1.558005"><ele>129.0</ele><time>2026-03-23T12:38:46.056Z</time></trkpt><trkpt lat="45.1539667" lon="1.5581367"><ele>129.0</ele><time>2026-03-23T12:38:48.058Z</time></trkpt><trkpt lat="45.154015" lon="1.5582717"><ele>129.0</ele><time>2026-03-23T12:38:50.057Z</time></trkpt><trkpt lat="45.1540333" lon="1.55841"><ele>129.0</ele><time>2026-03-23T12:38:52.059Z</time></trkpt><trkpt lat="45.1541067" lon="1.5584683"><ele>129.0</ele><time>2026-03-23T12:38:54.054Z</time></trkpt><trkpt lat="45.1542067" lon="1.5584117"><ele>129.0</ele><time>2026-03-23T12:38:56.054Z</time></trkpt><trkpt lat="45.1542533" lon="1.5583333"><ele>128.66666666666666</ele><time>2026-03-23T12:38:57.059Z</time></trkpt><trkpt lat="45.1542983" lon="1.5582583"><ele>128.33333333333334</ele><time>2026-03-23T12:38:58.057Z</time></trkpt><trkpt lat="45.1543433" lon="1.558175"><ele>128.0</ele><time>2026-03-23T12:38:59.056Z</time></trkpt><trkpt lat="45.15439" lon="1.558095"><ele>127.66666666666667</ele><time>2026-03-23T12:39:00.057Z</time></trkpt><trkpt lat="45.15444" lon="1.55801"><ele>127.33333333333334</ele><time>2026-03-23T12:39:01.056Z</time></trkpt><trkpt lat="45.15449" lon="1.557925"><ele>127.0</ele><time>2026-03-23T12:39:02.054Z</time></trkpt><trkpt lat="45.15454" lon="1.5578417"><ele>126.71428571428572</ele><time>2026-03-23T12:39:03.054Z</time></trkpt><trkpt lat="45.1545883" lon="1.5577567"><ele>126.42857142857142</ele><time>2026-03-23T12:39:04.056Z</time></trkpt><trkpt lat="45.1546367" lon="1.5576717"><ele>126.14285714285714</ele><time>2026-03-23T12:39:05.057Z</time></trkpt><trkpt lat="45.1546833" lon="1.5575917"><ele>125.85714285714286</ele><time>2026-03-23T12:39:06.055Z</time></trkpt><trkpt lat="45.1547267" lon="1.5575133"><ele>125.57142857142858</ele><time>2026-03-23T12:39:07.055Z</time></trkpt><trkpt lat="45.1547717" lon="1.5574383"><ele>125.28571428571428</ele><time>2026-03-23T12:39:08.063Z</time></trkpt><trkpt lat="45.1548167" lon="1.557365"><ele>125.0</ele><time>2026-03-23T12:39:09.054Z</time></trkpt><trkpt lat="45.15486" lon="1.55729"><ele>124.66666666666666</ele><time>2026-03-23T12:39:10.058Z</time></trkpt><trkpt lat="45.154905" lon="1.5572183"><ele>124.33333333333333</ele><time>2026-03-23T12:39:11.053Z</time></trkpt><trkpt lat="45.1549917" lon="1.55709"><ele>124.0</ele><time>2026-03-23T12:39:13.055Z</time></trkpt><trkpt lat="45.155035" lon="1.5570217"><ele>123.66666666666666</ele><time>2026-03-23T12:39:14.059Z</time></trkpt><trkpt lat="45.1550783" lon="1.556955"><ele>123.33333333333333</ele><time>2026-03-23T12:39:15.057Z</time></trkpt><trkpt lat="45.155165" lon="1.556825"><ele>123.0</ele><time>2026-03-23T12:39:17.055Z</time></trkpt><trkpt lat="45.1552067" lon="1.5567567"><ele>123.00000000000001</ele><time>2026-03-23T12:39:18.052Z</time></trkpt><trkpt lat="45.15525" lon="1.55669"><ele>123.0</ele><time>2026-03-23T12:39:19.066Z</time></trkpt><trkpt lat="45.1552967" lon="1.556625"><ele>123.00000000000001</ele><time>2026-03-23T12:39:20.055Z</time></trkpt><trkpt lat="45.155345" lon="1.5565617"><ele>123.00000000000001</ele><time>2026-03-23T12:39:21.056Z</time></trkpt><trkpt lat="45.1553933" lon="1.556495"><ele>123.0</ele><time>2026-03-23T12:39:22.056Z</time></trkpt><trkpt lat="45.1554467" lon="1.5564333"><ele>123.00000000000001</ele><time>2026-03-23T12:39:23.055Z</time></trkpt><trkpt lat="45.1555033" lon="1.5563767"><ele>123.00000000000001</ele><time>2026-03-23T12:39:24.061Z</time></trkpt><trkpt lat="45.1555633" lon="1.5563167"><ele>123.0</ele><time>2026-03-23T12:39:25.058Z</time></trkpt><trkpt lat="45.1556283" lon="1.55626"><ele>123.0</ele><time>2026-03-23T12:39:26.058Z</time></trkpt><trkpt lat="45.1556967" lon="1.5562067"><ele>123.0</ele><time>2026-03-23T12:39:27.058Z</time></trkpt><trkpt lat="45.1557683" lon="1.5561567"><ele>123.0</ele><time>2026-03-23T12:39:28.056Z</time></trkpt><trkpt lat="45.155845" lon="1.556115"><ele>123.0</ele><time>2026-03-23T12:39:29.054Z</time></trkpt><trkpt lat="45.1559233" lon="1.5560767"><ele>123.0</ele><time>2026-03-23T12:39:30.055Z</time></trkpt><trkpt lat="45.156" lon="1.5560417"><ele>122.83333333333333</ele><time>2026-03-23T12:39:31.055Z</time></trkpt><trkpt lat="45.15608" lon="1.55601"><ele>122.66666666666666</ele><time>2026-03-23T12:39:32.058Z</time></trkpt><trkpt lat="45.15616" lon="1.5559833"><ele>122.5</ele><time>2026-03-23T12:39:33.057Z</time></trkpt><trkpt lat="45.1562383" lon="1.5559617"><ele>122.33333333333333</ele><time>2026-03-23T12:39:34.056Z</time></trkpt><trkpt lat="45.15631" lon="1.555945"><ele>122.16666666666666</ele><time>2026-03-23T12:39:35.054Z</time></trkpt><trkpt lat="45.1563733" lon="1.5559317"><ele>122.0</ele><time>2026-03-23T12:39:36.054Z</time></trkpt><trkpt lat="45.1564783" lon="1.5559033"><ele>121.83333333333333</ele><time>2026-03-23T12:39:38.056Z</time></trkpt><trkpt lat="45.1565683" lon="1.555885"><ele>121.66666666666666</ele><time>2026-03-23T12:39:40.062Z</time></trkpt><trkpt lat="45.15664" lon="1.5558767"><ele>121.5</ele><time>2026-03-23T12:39:42.057Z</time></trkpt><trkpt lat="45.1567183" lon="1.5558667"><ele>121.33333333333334</ele><time>2026-03-23T12:39:45.056Z</time></trkpt><trkpt lat="45.1567967" lon="1.5558433"><ele>121.16666666666667</ele><time>2026-03-23T12:40:02.054Z</time></trkpt><trkpt lat="45.1568883" lon="1.5558233"><ele>121.0</ele><time>2026-03-23T12:40:04.056Z</time></trkpt><trkpt lat="45.15699" lon="1.555805"><ele>121.00000000000001</ele><time>2026-03-23T12:40:06.064Z</time></trkpt><trkpt lat="45.1571017" lon="1.5557667"><ele>121.0</ele><time>2026-03-23T12:40:08.054Z</time></trkpt><trkpt lat="45.1572133" lon="1.555685"><ele>121.0</ele><time>2026-03-23T12:40:10.057Z</time></trkpt><trkpt lat="45.1572667" lon="1.5556267"><ele>121.0</ele><time>2026-03-23T12:40:11.059Z</time></trkpt><trkpt lat="45.1573167" lon="1.5555667"><ele>121.00000000000001</ele><time>2026-03-23T12:40:12.056Z</time></trkpt><trkpt lat="45.1573667" lon="1.5554983"><ele>121.0</ele><time>2026-03-23T12:40:13.059Z</time></trkpt><trkpt lat="45.1574167" lon="1.55543"><ele>120.83333333333334</ele><time>2026-03-23T12:40:14.057Z</time></trkpt><trkpt lat="45.1574667" lon="1.555365"><ele>120.66666666666667</ele><time>2026-03-23T12:40:15.055Z</time></trkpt><trkpt lat="45.157515" lon="1.5553"><ele>120.5</ele><time>2026-03-23T12:40:16.063Z</time></trkpt><trkpt lat="45.1575617" lon="1.5552383"><ele>120.33333333333334</ele><time>2026-03-23T12:40:17.057Z</time></trkpt><trkpt lat="45.1576417" lon="1.55511"><ele>120.16666666666667</ele><time>2026-03-23T12:40:19.055Z</time></trkpt><trkpt lat="45.1577083" lon="1.554985"><ele>120.0</ele><time>2026-03-23T12:40:21.064Z</time></trkpt><trkpt lat="45.157755" lon="1.5548867"><ele>120.0</ele><time>2026-03-23T12:40:23.056Z</time></trkpt><trkpt lat="45.1578117" lon="1.5548333"><ele>120.0</ele><time>2026-03-23T12:40:26.06Z</time></trkpt><trkpt lat="45.1579033" lon="1.55485"><ele>120.0</ele><time>2026-03-23T12:41:17.054Z</time></trkpt><trkpt lat="45.1579583" lon="1.5549583"><ele>120.0</ele><time>2026-03-23T12:41:19.052Z</time></trkpt><trkpt lat="45.1579783" lon="1.5551083"><ele>120.0</ele><time>2026-03-23T12:41:21.06Z</time></trkpt><trkpt lat="45.1579817" lon="1.5552483"><ele>120.0</ele><time>2026-03-23T12:41:23.056Z</time></trkpt><trkpt lat="45.1579917" lon="1.5553517"><ele>120.0</ele><time>2026-03-23T12:41:26.059Z</time></trkpt><trkpt lat="45.15801" lon="1.55545"><ele>120.0</ele><time>2026-03-23T12:41:30.056Z</time></trkpt><trkpt lat="45.158095" lon="1.5554567"><ele>120.0</ele><time>2026-03-23T12:41:32.057Z</time></trkpt><trkpt lat="45.1582067" lon="1.555415"><ele>120.0</ele><time>2026-03-23T12:41:34.055Z</time></trkpt><trkpt lat="45.1582733" lon="1.55539"><ele>120.0</ele><time>2026-03-23T12:41:35.054Z</time></trkpt><trkpt lat="45.158345" lon="1.5553667"><ele>119.83333333333333</ele><time>2026-03-23T12:41:36.055Z</time></trkpt><trkpt lat="45.15842" lon="1.5553417"><ele>119.66666666666666</ele><time>2026-03-23T12:41:37.057Z</time></trkpt><trkpt lat="45.158495" lon="1.5553133"><ele>119.5</ele><time>2026-03-23T12:41:38.057Z</time></trkpt><trkpt lat="45.1585717" lon="1.5552883"><ele>119.33333333333333</ele><time>2026-03-23T12:41:39.057Z</time></trkpt><trkpt lat="45.1586467" lon="1.5552633"><ele>119.16666666666666</ele><time>2026-03-23T12:41:40.062Z</time></trkpt><trkpt lat="45.15872" lon="1.5552383"><ele>119.0</ele><time>2026-03-23T12:41:41.058Z</time></trkpt><trkpt lat="45.1587917" lon="1.5552083"><ele>119.0</ele><time>2026-03-23T12:41:42.059Z</time></trkpt><trkpt lat="45.1588617" lon="1.5551717"><ele>119.0</ele><time>2026-03-23T12:41:43.055Z</time></trkpt><trkpt lat="45.1589267" lon="1.5551367"><ele>119.0</ele><time>2026-03-23T12:41:44.057Z</time></trkpt><trkpt lat="45.158995" lon="1.5550967"><ele>119.0</ele><time>2026-03-23T12:41:45.053Z</time></trkpt><trkpt lat="45.1590633" lon="1.5550583"><ele>119.0</ele><time>2026-03-23T12:41:46.055Z</time></trkpt><trkpt lat="45.159135" lon="1.5550233"><ele>119.0</ele><time>2026-03-23T12:41:47.052Z</time></trkpt><trkpt lat="45.159205" lon="1.55499"><ele>119.0</ele><time>2026-03-23T12:41:48.058Z</time></trkpt><trkpt lat="45.159275" lon="1.5549533"><ele>118.71428571428572</ele><time>2026-03-23T12:41:49.056Z</time></trkpt><trkpt lat="45.159345" lon="1.5549183"><ele>118.42857142857143</ele><time>2026-03-23T12:41:50.057Z</time></trkpt><trkpt lat="45.159415" lon="1.5548833"><ele>118.14285714285714</ele><time>2026-03-23T12:41:51.056Z</time></trkpt><trkpt lat="45.1594783" lon="1.55485"><ele>117.85714285714286</ele><time>2026-03-23T12:41:52.056Z</time></trkpt><trkpt lat="45.1595433" lon="1.55482"><ele>117.57142857142858</ele><time>2026-03-23T12:41:53.057Z</time></trkpt><trkpt lat="45.1596067" lon="1.554785"><ele>117.28571428571429</ele><time>2026-03-23T12:41:54.056Z</time></trkpt><trkpt lat="45.1596733" lon="1.55475"><ele>117.0</ele><time>2026-03-23T12:41:55.057Z</time></trkpt><trkpt lat="45.1597417" lon="1.55471"><ele>117.0</ele><time>2026-03-23T12:41:56.059Z</time></trkpt><trkpt lat="45.1598083" lon="1.5546767"><ele>117.00000000000001</ele><time>2026-03-23T12:41:57.056Z</time></trkpt><trkpt lat="45.1598767" lon="1.5546333"><ele>117.0</ele><time>2026-03-23T12:41:58.058Z</time></trkpt><trkpt lat="45.1599433" lon="1.554595"><ele>117.0</ele><time>2026-03-23T12:41:59.056Z</time></trkpt><trkpt lat="45.16001" lon="1.5545533"><ele>117.00000000000001</ele><time>2026-03-23T12:42:00.055Z</time></trkpt><trkpt lat="45.1600767" lon="1.55451"><ele>117.0</ele><time>2026-03-23T12:42:01.055Z</time></trkpt><trkpt lat="45.160145" lon="1.554465"><ele>117.0</ele><time>2026-03-23T12:42:02.056Z</time></trkpt><trkpt lat="45.1602133" lon="1.5544167"><ele>116.85714285714286</ele><time>2026-03-23T12:42:03.066Z</time></trkpt><trkpt lat="45.16028" lon="1.5543717"><ele>116.71428571428572</ele><time>2026-03-23T12:42:04.054Z</time></trkpt><trkpt lat="45.1603467" lon="1.5543233"><ele>116.57142857142858</ele><time>2026-03-23T12:42:05.056Z</time></trkpt><trkpt lat="45.1604133" lon="1.5542817"><ele>116.42857142857144</ele><time>2026-03-23T12:42:06.055Z</time></trkpt><trkpt lat="45.1604783" lon="1.5542367"><ele>116.28571428571429</ele><time>2026-03-23T12:42:07.056Z</time></trkpt><trkpt lat="45.1605467" lon="1.5541933"><ele>116.14285714285717</ele><time>2026-03-23T12:42:08.067Z</time></trkpt><trkpt lat="45.1606133" lon="1.55415"><ele>116.00000000000001</ele><time>2026-03-23T12:42:09.061Z</time></trkpt><trkpt lat="45.16068" lon="1.554105"><ele>115.85714285714288</ele><time>2026-03-23T12:42:10.059Z</time></trkpt><trkpt lat="45.1607383" lon="1.5540683"><ele>115.71428571428572</ele><time>2026-03-23T12:42:11.058Z</time></trkpt><trkpt lat="45.1608033" lon="1.5540283"><ele>115.57142857142857</ele><time>2026-03-23T12:42:12.06Z</time></trkpt><trkpt lat="45.16087" lon="1.5539867"><ele>115.42857142857143</ele><time>2026-03-23T12:42:13.064Z</time></trkpt><trkpt lat="45.160935" lon="1.5539417"><ele>115.28571428571428</ele><time>2026-03-23T12:42:14.056Z</time></trkpt><trkpt lat="45.1610017" lon="1.5538983"><ele>115.14285714285712</ele><time>2026-03-23T12:42:15.057Z</time></trkpt><trkpt lat="45.1610683" lon="1.553855"><ele>114.99999999999999</ele><time>2026-03-23T12:42:16.056Z</time></trkpt><trkpt lat="45.1611367" lon="1.5538167"><ele>114.99999999999999</ele><time>2026-03-23T12:42:17.056Z</time></trkpt><trkpt lat="45.1612033" lon="1.5537783"><ele>115.0</ele><time>2026-03-23T12:42:18.069Z</time></trkpt><trkpt lat="45.1612667" lon="1.5537417"><ele>114.99999999999999</ele><time>2026-03-23T12:42:19.055Z</time></trkpt><trkpt lat="45.1613317" lon="1.5537"><ele>114.99999999999999</ele><time>2026-03-23T12:42:20.055Z</time></trkpt><trkpt lat="45.1613967" lon="1.5536583"><ele>115.0</ele><time>2026-03-23T12:42:21.057Z</time></trkpt><trkpt lat="45.1614683" lon="1.553615"><ele>114.99999999999999</ele><time>2026-03-23T12:42:22.058Z</time></trkpt><trkpt lat="45.1615433" lon="1.553565"><ele>114.99999999999999</ele><time>2026-03-23T12:42:23.062Z</time></trkpt><trkpt lat="45.161615" lon="1.5535267"><ele>114.83333333333334</ele><time>2026-03-23T12:42:24.056Z</time></trkpt><trkpt lat="45.1616867" lon="1.5534817"><ele>114.66666666666667</ele><time>2026-03-23T12:42:25.058Z</time></trkpt><trkpt lat="45.1617583" lon="1.55344"><ele>114.5</ele><time>2026-03-23T12:42:26.058Z</time></trkpt><trkpt lat="45.1618283" lon="1.5533983"><ele>114.33333333333334</ele><time>2026-03-23T12:42:27.057Z</time></trkpt><trkpt lat="45.1619" lon="1.5533583"><ele>114.16666666666667</ele><time>2026-03-23T12:42:28.054Z</time></trkpt><trkpt lat="45.16197" lon="1.5533233"><ele>114.0</ele><time>2026-03-23T12:42:29.056Z</time></trkpt><trkpt lat="45.1620383" lon="1.5532817"><ele>114.0</ele><time>2026-03-23T12:42:30.057Z</time></trkpt><trkpt lat="45.1620983" lon="1.5532383"><ele>113.99999999999999</ele><time>2026-03-23T12:42:31.06Z</time></trkpt><trkpt lat="45.1621617" lon="1.5531967"><ele>114.0</ele><time>2026-03-23T12:42:32.06Z</time></trkpt><trkpt lat="45.162225" lon="1.553155"><ele>114.0</ele><time>2026-03-23T12:42:33.056Z</time></trkpt><trkpt lat="45.16229" lon="1.55312"><ele>113.99999999999999</ele><time>2026-03-23T12:42:34.059Z</time></trkpt><trkpt lat="45.16236" lon="1.5530933"><ele>114.0</ele><time>2026-03-23T12:42:35.057Z</time></trkpt><trkpt lat="45.162425" lon="1.5530583"><ele>114.0</ele><time>2026-03-23T12:42:36.057Z</time></trkpt><trkpt lat="45.1624933" lon="1.5530233"><ele>113.71428571428571</ele><time>2026-03-23T12:42:37.057Z</time></trkpt><trkpt lat="45.1625583" lon="1.5529833"><ele>113.42857142857142</ele><time>2026-03-23T12:42:38.055Z</time></trkpt><trkpt lat="45.16262" lon="1.5529433"><ele>113.14285714285714</ele><time>2026-03-23T12:42:39.056Z</time></trkpt><trkpt lat="45.162685" lon="1.5528983"><ele>112.85714285714286</ele><time>2026-03-23T12:42:40.061Z</time></trkpt><trkpt lat="45.1627533" lon="1.552855"><ele>112.57142857142857</ele><time>2026-03-23T12:42:41.054Z</time></trkpt><trkpt lat="45.1628233" lon="1.552815"><ele>112.28571428571428</ele><time>2026-03-23T12:42:42.056Z</time></trkpt><trkpt lat="45.1628867" lon="1.552775"><ele>112.0</ele><time>2026-03-23T12:42:43.06Z</time></trkpt><trkpt lat="45.1629517" lon="1.55273"><ele>112.0</ele><time>2026-03-23T12:42:44.055Z</time></trkpt><trkpt lat="45.1630133" lon="1.5526833"><ele>112.0</ele><time>2026-03-23T12:42:45.062Z</time></trkpt><trkpt lat="45.1630767" lon="1.5526383"><ele>112.0</ele><time>2026-03-23T12:42:46.054Z</time></trkpt><trkpt lat="45.16314" lon="1.5525983"><ele>112.0</ele><time>2026-03-23T12:42:47.056Z</time></trkpt><trkpt lat="45.163205" lon="1.552555"><ele>112.0</ele><time>2026-03-23T12:42:48.054Z</time></trkpt><trkpt lat="45.16327" lon="1.5525133"><ele>112.0</ele><time>2026-03-23T12:42:49.054Z</time></trkpt><trkpt lat="45.1633367" lon="1.552485"><ele>112.0</ele><time>2026-03-23T12:42:50.061Z</time></trkpt><trkpt lat="45.1634017" lon="1.5524617"><ele>112.16666666666667</ele><time>2026-03-23T12:42:51.057Z</time></trkpt><trkpt lat="45.1634667" lon="1.5524267"><ele>112.33333333333334</ele><time>2026-03-23T12:42:52.056Z</time></trkpt><trkpt lat="45.16353" lon="1.55239"><ele>112.5</ele><time>2026-03-23T12:42:53.056Z</time></trkpt><trkpt lat="45.16359" lon="1.552355"><ele>112.66666666666666</ele><time>2026-03-23T12:42:54.055Z</time></trkpt><trkpt lat="45.16365" lon="1.5523267"><ele>112.83333333333333</ele><time>2026-03-23T12:42:55.062Z</time></trkpt><trkpt lat="45.1637633" lon="1.55226"><ele>113.0</ele><time>2026-03-23T12:42:57.053Z</time></trkpt><trkpt lat="45.1638533" lon="1.552205"><ele>112.99999999999999</ele><time>2026-03-23T12:42:59.054Z</time></trkpt><trkpt lat="45.1639217" lon="1.5521983"><ele>113.0</ele><time>2026-03-23T12:43:02.058Z</time></trkpt><trkpt lat="45.16396" lon="1.552285"><ele>113.0</ele><time>2026-03-23T12:43:04.053Z</time></trkpt><trkpt lat="45.1639933" lon="1.5524317"><ele>113.0</ele><time>2026-03-23T12:43:06.057Z</time></trkpt><trkpt lat="45.1640217" lon="1.552595"><ele>112.99999999999999</ele><time>2026-03-23T12:43:08.058Z</time></trkpt><trkpt lat="45.1640333" lon="1.5526867"><ele>113.0</ele><time>2026-03-23T12:43:09.056Z</time></trkpt><trkpt lat="45.16405" lon="1.552785"><ele>112.85714285714286</ele><time>2026-03-23T12:43:10.055Z</time></trkpt><trkpt lat="45.16407" lon="1.5528867"><ele>112.71428571428571</ele><time>2026-03-23T12:43:11.055Z</time></trkpt><trkpt lat="45.1640833" lon="1.5529867"><ele>112.57142857142857</ele><time>2026-03-23T12:43:12.054Z</time></trkpt><trkpt lat="45.1641017" lon="1.5530867"><ele>112.42857142857143</ele><time>2026-03-23T12:43:13.061Z</time></trkpt><trkpt lat="45.16412" lon="1.55318"><ele>112.28571428571428</ele><time>2026-03-23T12:43:14.056Z</time></trkpt><trkpt lat="45.1641433" lon="1.5532767"><ele>112.14285714285714</ele><time>2026-03-23T12:43:15.057Z</time></trkpt><trkpt lat="45.164165" lon="1.5533733"><ele>112.0</ele><time>2026-03-23T12:43:16.054Z</time></trkpt><trkpt lat="45.1641867" lon="1.55347"><ele>112.00000000000001</ele><time>2026-03-23T12:43:17.053Z</time></trkpt><trkpt lat="45.1642067" lon="1.5535667"><ele>112.0</ele><time>2026-03-23T12:43:18.059Z</time></trkpt><trkpt lat="45.1642383" lon="1.55366"><ele>112.0</ele><time>2026-03-23T12:43:19.056Z</time></trkpt><trkpt lat="45.1642783" lon="1.5537367"><ele>112.0</ele><time>2026-03-23T12:43:20.055Z</time></trkpt><trkpt lat="45.1643283" lon="1.5538033"><ele>112.00000000000001</ele><time>2026-03-23T12:43:21.057Z</time></trkpt><trkpt lat="45.164405" lon="1.5539"><ele>112.0</ele><time>2026-03-23T12:43:23.063Z</time></trkpt><trkpt lat="45.1644733" lon="1.5539417"><ele>112.0</ele><time>2026-03-23T12:43:25.055Z</time></trkpt><trkpt lat="45.1645467" lon="1.553975"><ele>111.99999999999999</ele><time>2026-03-23T12:43:28.053Z</time></trkpt><trkpt lat="45.1645917" lon="1.553885"><ele>111.99999999999999</ele><time>2026-03-23T12:43:30.057Z</time></trkpt><trkpt lat="45.1646317" lon="1.5537417"><ele>112.0</ele><time>2026-03-23T12:43:32.055Z</time></trkpt><trkpt lat="45.1647167" lon="1.553615"><ele>112.0</ele><time>2026-03-23T12:43:34.054Z</time></trkpt><trkpt lat="45.1647733" lon="1.55356"><ele>112.0</ele><time>2026-03-23T12:43:35.052Z</time></trkpt><trkpt lat="45.164835" lon="1.5535067"><ele>112.0</ele><time>2026-03-23T12:43:36.055Z</time></trkpt><trkpt lat="45.164895" lon="1.5534567"><ele>112.0</ele><time>2026-03-23T12:43:37.055Z</time></trkpt><trkpt lat="45.1649567" lon="1.5534067"><ele>112.0</ele><time>2026-03-23T12:43:38.065Z</time></trkpt><trkpt lat="45.1650167" lon="1.5533567"><ele>112.0</ele><time>2026-03-23T12:43:39.054Z</time></trkpt><trkpt lat="45.1650767" lon="1.5533067"><ele>112.0</ele><time>2026-03-23T12:43:40.055Z</time></trkpt><trkpt lat="45.1651333" lon="1.5532567"><ele>112.0</ele><time>2026-03-23T12:43:41.057Z</time></trkpt><trkpt lat="45.1651867" lon="1.553205"><ele>112.0</ele><time>2026-03-23T12:43:42.057Z</time></trkpt><trkpt lat="45.1652833" lon="1.5531"><ele>111.99999999999999</ele><time>2026-03-23T12:43:44.057Z</time></trkpt><trkpt lat="45.1653833" lon="1.553025"><ele>111.99999999999999</ele><time>2026-03-23T12:43:46.055Z</time></trkpt><trkpt lat="45.1654833" lon="1.552975"><ele>112.0</ele><time>2026-03-23T12:43:48.051Z</time></trkpt><trkpt lat="45.1655717" lon="1.5529017"><ele>112.0</ele><time>2026-03-23T12:43:50.057Z</time></trkpt><trkpt lat="45.1656533" lon="1.5528133"><ele>112.0</ele><time>2026-03-23T12:43:52.061Z</time></trkpt><trkpt lat="45.16574" lon="1.5527633"><ele>111.99999999999999</ele><time>2026-03-23T12:43:54.058Z</time></trkpt><trkpt lat="45.1658367" lon="1.5528283"><ele>111.99999999999999</ele><time>2026-03-23T12:43:56.056Z</time></trkpt><trkpt lat="45.1659317" lon="1.552925"><ele>112.0</ele><time>2026-03-23T12:43:58.054Z</time></trkpt><trkpt lat="45.1659867" lon="1.5529817"><ele>112.0</ele><time>2026-03-23T12:43:59.068Z</time></trkpt><trkpt lat="45.1660433" lon="1.5530433"><ele>112.0</ele><time>2026-03-23T12:44:00.056Z</time></trkpt><trkpt lat="45.166105" lon="1.5530983"><ele>112.0</ele><time>2026-03-23T12:44:01.056Z</time></trkpt><trkpt lat="45.1661617" lon="1.5531567"><ele>112.0</ele><time>2026-03-23T12:44:02.055Z</time></trkpt><trkpt lat="45.16622" lon="1.5532083"><ele>112.0</ele><time>2026-03-23T12:44:03.057Z</time></trkpt><trkpt lat="45.166285" lon="1.5532483"><ele>112.0</ele><time>2026-03-23T12:44:04.057Z</time></trkpt><trkpt lat="45.1663483" lon="1.55329"><ele>112.0</ele><time>2026-03-23T12:44:05.055Z</time></trkpt><trkpt lat="45.1664033" lon="1.553335"><ele>112.0</ele><time>2026-03-23T12:44:06.053Z</time></trkpt><trkpt lat="45.1664983" lon="1.553425"><ele>111.85714285714286</ele><time>2026-03-23T12:44:08.056Z</time></trkpt><trkpt lat="45.1665983" lon="1.5535117"><ele>111.71428571428572</ele><time>2026-03-23T12:44:10.061Z</time></trkpt><trkpt lat="45.1666617" lon="1.5535467"><ele>111.57142857142857</ele><time>2026-03-23T12:44:11.055Z</time></trkpt><trkpt lat="45.166725" lon="1.5535783"><ele>111.42857142857143</ele><time>2026-03-23T12:44:12.061Z</time></trkpt><trkpt lat="45.1667883" lon="1.5536167"><ele>111.28571428571429</ele><time>2026-03-23T12:44:13.054Z</time></trkpt><trkpt lat="45.1668417" lon="1.5536667"><ele>111.14285714285714</ele><time>2026-03-23T12:44:14.057Z</time></trkpt><trkpt lat="45.1668917" lon="1.5537233"><ele>111.0</ele><time>2026-03-23T12:44:15.059Z</time></trkpt><trkpt lat="45.1669333" lon="1.553795"><ele>111.4</ele><time>2026-03-23T12:44:16.057Z</time></trkpt><trkpt lat="45.1669617" lon="1.553875"><ele>111.8</ele><time>2026-03-23T12:44:17.056Z</time></trkpt><trkpt lat="45.1669883" lon="1.5540417"><ele>112.20000000000002</ele><time>2026-03-23T12:44:19.055Z</time></trkpt><trkpt lat="45.1670017" lon="1.5542167"><ele>112.60000000000001</ele><time>2026-03-23T12:44:21.056Z</time></trkpt><trkpt lat="45.1670017" lon="1.55438"><ele>113.0</ele><time>2026-03-23T12:44:23.056Z</time></trkpt><trkpt lat="45.1669967" lon="1.554545"><ele>113.4</ele><time>2026-03-23T12:44:25.056Z</time></trkpt><trkpt lat="45.16699" lon="1.5547017"><ele>113.80000000000001</ele><time>2026-03-23T12:44:27.059Z</time></trkpt><trkpt lat="45.16697" lon="1.55485"><ele>114.2</ele><time>2026-03-23T12:44:29.053Z</time></trkpt><trkpt lat="45.1669383" lon="1.5549883"><ele>114.6</ele><time>2026-03-23T12:44:31.055Z</time></trkpt><trkpt lat="45.166915" lon="1.5551267"><ele>115.0</ele><time>2026-03-23T12:44:33.054Z</time></trkpt><trkpt lat="45.166895" lon="1.5552767"><ele>114.25</ele><time>2026-03-23T12:44:35.053Z</time></trkpt><trkpt lat="45.1668883" lon="1.555435"><ele>113.5</ele><time>2026-03-23T12:44:37.056Z</time></trkpt><trkpt lat="45.1668433" lon="1.555585"><ele>112.75</ele><time>2026-03-23T12:44:39.06Z</time></trkpt><trkpt lat="45.1667867" lon="1.555735"><ele>112.0</ele><time>2026-03-23T12:44:41.057Z</time></trkpt><trkpt lat="45.1667583" lon="1.5558967"><ele>112.0</ele><time>2026-03-23T12:44:43.058Z</time></trkpt><trkpt lat="45.1667233" lon="1.5560533"><ele>112.0</ele><time>2026-03-23T12:44:45.06Z</time></trkpt><trkpt lat="45.1666867" lon="1.556205"><ele>112.0</ele><time>2026-03-23T12:44:47.059Z</time></trkpt><trkpt lat="45.166655" lon="1.5563633"><ele>112.0</ele><time>2026-03-23T12:44:49.057Z</time></trkpt><trkpt lat="45.166625" lon="1.5565217"><ele>112.0</ele><time>2026-03-23T12:44:51.055Z</time></trkpt><trkpt lat="45.1665917" lon="1.556685"><ele>111.99999999999999</ele><time>2026-03-23T12:44:53.056Z</time></trkpt><trkpt lat="45.1665633" lon="1.5568333"><ele>111.99999999999999</ele><time>2026-03-23T12:44:55.062Z</time></trkpt><trkpt lat="45.1665467" lon="1.5569833"><ele>112.0</ele><time>2026-03-23T12:44:57.067Z</time></trkpt><trkpt lat="45.1665267" lon="1.5571417"><ele>112.0</ele><time>2026-03-23T12:44:59.062Z</time></trkpt><trkpt lat="45.1664883" lon="1.5572817"><ele>112.0</ele><time>2026-03-23T12:45:01.052Z</time></trkpt><trkpt lat="45.1664383" lon="1.5573983"><ele>111.99999999999999</ele><time>2026-03-23T12:45:03.057Z</time></trkpt><trkpt lat="45.1664" lon="1.5575433"><ele>111.99999999999999</ele><time>2026-03-23T12:45:05.058Z</time></trkpt><trkpt lat="45.1663567" lon="1.5576867"><ele>112.0</ele><time>2026-03-23T12:45:07.054Z</time></trkpt><trkpt lat="45.166315" lon="1.5578367"><ele>112.0</ele><time>2026-03-23T12:45:09.057Z</time></trkpt><trkpt lat="45.1662617" lon="1.5579733"><ele>111.75</ele><time>2026-03-23T12:45:11.058Z</time></trkpt><trkpt lat="45.1662217" lon="1.5581117"><ele>111.5</ele><time>2026-03-23T12:45:13.058Z</time></trkpt><trkpt lat="45.1661767" lon="1.55826"><ele>111.25</ele><time>2026-03-23T12:45:15.053Z</time></trkpt><trkpt lat="45.16614" lon="1.5584167"><ele>111.0</ele><time>2026-03-23T12:45:17.062Z</time></trkpt><trkpt lat="45.1660967" lon="1.55857"><ele>110.8</ele><time>2026-03-23T12:45:19.057Z</time></trkpt><trkpt lat="45.166065" lon="1.5587217"><ele>110.6</ele><time>2026-03-23T12:45:21.055Z</time></trkpt><trkpt lat="45.1660283" lon="1.558875"><ele>110.4</ele><time>2026-03-23T12:45:23.055Z</time></trkpt><trkpt lat="45.1659867" lon="1.5590383"><ele>110.2</ele><time>2026-03-23T12:45:25.059Z</time></trkpt><trkpt lat="45.1659683" lon="1.5591267"><ele>110.0</ele><time>2026-03-23T12:45:26.057Z</time></trkpt><trkpt lat="45.1659383" lon="1.559285"><ele>110.0</ele><time>2026-03-23T12:45:28.055Z</time></trkpt><trkpt lat="45.1659083" lon="1.5594367"><ele>110.0</ele><time>2026-03-23T12:45:30.064Z</time></trkpt><trkpt lat="45.165875" lon="1.5595817"><ele>110.0</ele><time>2026-03-23T12:45:32.054Z</time></trkpt><trkpt lat="45.16585" lon="1.55974"><ele>110.0</ele><time>2026-03-23T12:45:34.052Z</time></trkpt><trkpt lat="45.1658533" lon="1.5599083"><ele>110.2</ele><time>2026-03-23T12:45:36.054Z</time></trkpt><trkpt lat="45.1658467" lon="1.560075"><ele>110.4</ele><time>2026-03-23T12:45:38.055Z</time></trkpt><trkpt lat="45.1658283" lon="1.5602317"><ele>110.6</ele><time>2026-03-23T12:45:40.056Z</time></trkpt><trkpt lat="45.1658033" lon="1.5603867"><ele>110.8</ele><time>2026-03-23T12:45:42.056Z</time></trkpt><trkpt lat="45.16578" lon="1.5605333"><ele>111.0</ele><time>2026-03-23T12:45:44.053Z</time></trkpt><trkpt lat="45.165755" lon="1.560685"><ele>111.25</ele><time>2026-03-23T12:45:46.059Z</time></trkpt><trkpt lat="45.1657367" lon="1.56084"><ele>111.5</ele><time>2026-03-23T12:45:48.053Z</time></trkpt><trkpt lat="45.1657217" lon="1.5610067"><ele>111.75</ele><time>2026-03-23T12:45:50.053Z</time></trkpt><trkpt lat="45.1657217" lon="1.56117"><ele>112.0</ele><time>2026-03-23T12:45:52.056Z</time></trkpt><trkpt lat="45.16572" lon="1.56133"><ele>112.0</ele><time>2026-03-23T12:45:54.056Z</time></trkpt><trkpt lat="45.165715" lon="1.5615"><ele>111.99999999999999</ele><time>2026-03-23T12:45:56.055Z</time></trkpt><trkpt lat="45.1657283" lon="1.561665"><ele>111.99999999999999</ele><time>2026-03-23T12:45:58.054Z</time></trkpt><trkpt lat="45.165755" lon="1.5618167"><ele>112.0</ele><time>2026-03-23T12:46:00.057Z</time></trkpt><trkpt lat="45.1657617" lon="1.56196"><ele>112.0</ele><time>2026-03-23T12:46:02.06Z</time></trkpt><trkpt lat="45.1656917" lon="1.56205"><ele>112.16666666666667</ele><time>2026-03-23T12:46:04.055Z</time></trkpt><trkpt lat="45.1656133" lon="1.5621167"><ele>112.33333333333334</ele><time>2026-03-23T12:46:06.058Z</time></trkpt><trkpt lat="45.1655467" lon="1.5621733"><ele>112.5</ele><time>2026-03-23T12:46:08.068Z</time></trkpt><trkpt lat="45.1655283" lon="1.5622633"><ele>112.66666666666666</ele><time>2026-03-23T12:46:11.054Z</time></trkpt><trkpt lat="45.1655983" lon="1.562245"><ele>112.83333333333333</ele><time>2026-03-23T12:46:14.061Z</time></trkpt><trkpt lat="45.1656717" lon="1.5621683"><ele>113.0</ele><time>2026-03-23T12:46:16.052Z</time></trkpt><trkpt lat="45.165755" lon="1.5620983"><ele>112.99999999999999</ele><time>2026-03-23T12:46:18.055Z</time></trkpt><trkpt lat="45.16583" lon="1.5620617"><ele>113.0</ele><time>2026-03-23T12:46:21.052Z</time></trkpt><trkpt lat="45.1658967" lon="1.5620433"><ele>113.0</ele><time>2026-03-23T12:46:23.055Z</time></trkpt><trkpt lat="45.165985" lon="1.561955"><ele>113.0</ele><time>2026-03-23T12:46:25.054Z</time></trkpt><trkpt lat="45.166035" lon="1.5618933"><ele>112.99999999999999</ele><time>2026-03-23T12:46:26.053Z</time></trkpt><trkpt lat="45.1660817" lon="1.5618333"><ele>113.0</ele><time>2026-03-23T12:46:27.055Z</time></trkpt><trkpt lat="45.1661333" lon="1.5617683"><ele>112.83333333333333</ele><time>2026-03-23T12:46:28.058Z</time></trkpt><trkpt lat="45.16619" lon="1.5616983"><ele>112.66666666666666</ele><time>2026-03-23T12:46:29.054Z</time></trkpt><trkpt lat="45.166245" lon="1.5616233"><ele>112.5</ele><time>2026-03-23T12:46:30.058Z</time></trkpt><trkpt lat="45.1663033" lon="1.56155"><ele>112.33333333333334</ele><time>2026-03-23T12:46:31.058Z</time></trkpt><trkpt lat="45.16636" lon="1.5614767"><ele>112.16666666666667</ele><time>2026-03-23T12:46:32.054Z</time></trkpt><trkpt lat="45.16642" lon="1.56141"><ele>112.0</ele><time>2026-03-23T12:46:33.058Z</time></trkpt><trkpt lat="45.166485" lon="1.5613467"><ele>112.00000000000001</ele><time>2026-03-23T12:46:34.056Z</time></trkpt><trkpt lat="45.1665567" lon="1.561305"><ele>112.0</ele><time>2026-03-23T12:46:35.059Z</time></trkpt><trkpt lat="45.1666383" lon="1.5613183"><ele>112.0</ele><time>2026-03-23T12:46:36.054Z</time></trkpt><trkpt lat="45.1667183" lon="1.5613383"><ele>112.0</ele><time>2026-03-23T12:46:37.054Z</time></trkpt><trkpt lat="45.1667983" lon="1.5613367"><ele>112.00000000000001</ele><time>2026-03-23T12:46:38.057Z</time></trkpt><trkpt lat="45.1668717" lon="1.5613233"><ele>112.0</ele><time>2026-03-23T12:46:39.054Z</time></trkpt><trkpt lat="45.166935" lon="1.56128"><ele>112.0</ele><time>2026-03-23T12:46:40.062Z</time></trkpt><trkpt lat="45.1669967" lon="1.561225"><ele>112.0</ele><time>2026-03-23T12:46:41.057Z</time></trkpt><trkpt lat="45.1670567" lon="1.5611683"><ele>112.0</ele><time>2026-03-23T12:46:42.056Z</time></trkpt><trkpt lat="45.1671167" lon="1.5611117"><ele>112.0</ele><time>2026-03-23T12:46:43.055Z</time></trkpt><trkpt lat="45.1671733" lon="1.56106"><ele>112.0</ele><time>2026-03-23T12:46:44.053Z</time></trkpt><trkpt lat="45.1672333" lon="1.56101"><ele>112.0</ele><time>2026-03-23T12:46:45.059Z</time></trkpt><trkpt lat="45.1672917" lon="1.56096"><ele>112.0</ele><time>2026-03-23T12:46:46.053Z</time></trkpt><trkpt lat="45.1673567" lon="1.560925"><ele>112.0</ele><time>2026-03-23T12:46:47.064Z</time></trkpt><trkpt lat="45.16742" lon="1.5608933"><ele>112.0</ele><time>2026-03-23T12:46:48.057Z</time></trkpt><trkpt lat="45.167485" lon="1.56087"><ele>112.0</ele><time>2026-03-23T12:46:49.055Z</time></trkpt><trkpt lat="45.1675517" lon="1.560845"><ele>112.0</ele><time>2026-03-23T12:46:50.058Z</time></trkpt><trkpt lat="45.1676183" lon="1.560825"><ele>112.0</ele><time>2026-03-23T12:46:51.054Z</time></trkpt><trkpt lat="45.16769" lon="1.5608233"><ele>112.0</ele><time>2026-03-23T12:46:52.058Z</time></trkpt><trkpt lat="45.1677517" lon="1.5608567"><ele>112.0</ele><time>2026-03-23T12:46:53.056Z</time></trkpt><trkpt lat="45.1678033" lon="1.5609183"><ele>112.0</ele><time>2026-03-23T12:46:54.062Z</time></trkpt><trkpt lat="45.16785" lon="1.5609933"><ele>112.0</ele><time>2026-03-23T12:46:55.055Z</time></trkpt><trkpt lat="45.167905" lon="1.561055"><ele>112.0</ele><time>2026-03-23T12:46:56.056Z</time></trkpt><trkpt lat="45.1679533" lon="1.5611233"><ele>112.0</ele><time>2026-03-23T12:46:57.06Z</time></trkpt><trkpt lat="45.1680033" lon="1.5611933"><ele>112.0</ele><time>2026-03-23T12:46:58.055Z</time></trkpt><trkpt lat="45.1680533" lon="1.56126"><ele>112.0</ele><time>2026-03-23T12:46:59.054Z</time></trkpt><trkpt lat="45.1681067" lon="1.56132"><ele>112.0</ele><time>2026-03-23T12:47:00.055Z</time></trkpt><trkpt lat="45.1681583" lon="1.5613833"><ele>112.14285714285714</ele><time>2026-03-23T12:47:01.057Z</time></trkpt><trkpt lat="45.1682083" lon="1.561445"><ele>112.28571428571428</ele><time>2026-03-23T12:47:02.06Z</time></trkpt><trkpt lat="45.16826" lon="1.56151"><ele>112.42857142857143</ele><time>2026-03-23T12:47:03.056Z</time></trkpt><trkpt lat="45.1683033" lon="1.5615817"><ele>112.57142857142857</ele><time>2026-03-23T12:47:04.054Z</time></trkpt><trkpt lat="45.1683433" lon="1.5616567"><ele>112.71428571428571</ele><time>2026-03-23T12:47:05.055Z</time></trkpt><trkpt lat="45.168385" lon="1.56173"><ele>112.85714285714286</ele><time>2026-03-23T12:47:06.057Z</time></trkpt><trkpt lat="45.1684317" lon="1.561795"><ele>113.0</ele><time>2026-03-23T12:47:07.063Z</time></trkpt><trkpt lat="45.1684833" lon="1.561855"><ele>112.99999999999999</ele><time>2026-03-23T12:47:08.054Z</time></trkpt><trkpt lat="45.1685367" lon="1.5619133"><ele>113.0</ele><time>2026-03-23T12:47:09.055Z</time></trkpt><trkpt lat="45.1685883" lon="1.5619767"><ele>113.0</ele><time>2026-03-23T12:47:10.055Z</time></trkpt><trkpt lat="45.168635" lon="1.56204"><ele>113.0</ele><time>2026-03-23T12:47:11.053Z</time></trkpt><trkpt lat="45.1687333" lon="1.5621517"><ele>112.99999999999999</ele><time>2026-03-23T12:47:13.054Z</time></trkpt><trkpt lat="45.168785" lon="1.5622033"><ele>113.0</ele><time>2026-03-23T12:47:14.055Z</time></trkpt><trkpt lat="45.1688667" lon="1.5623267"><ele>113.0</ele><time>2026-03-23T12:47:16.056Z</time></trkpt><trkpt lat="45.168965" lon="1.5624033"><ele>113.00000000000001</ele><time>2026-03-23T12:47:18.055Z</time></trkpt><trkpt lat="45.1690383" lon="1.562495"><ele>113.00000000000001</ele><time>2026-03-23T12:47:20.058Z</time></trkpt><trkpt lat="45.169075" lon="1.5625933"><ele>113.0</ele><time>2026-03-23T12:47:22.054Z</time></trkpt><trkpt lat="45.1691233" lon="1.5626983"><ele>113.0</ele><time>2026-03-23T12:47:24.056Z</time></trkpt><trkpt lat="45.1691783" lon="1.5628167"><ele>113.0</ele><time>2026-03-23T12:47:26.061Z</time></trkpt><trkpt lat="45.1692367" lon="1.5629483"><ele>113.00000000000001</ele><time>2026-03-23T12:47:28.054Z</time></trkpt><trkpt lat="45.16929" lon="1.563075"><ele>113.00000000000001</ele><time>2026-03-23T12:47:30.056Z</time></trkpt><trkpt lat="45.1693483" lon="1.5631667"><ele>113.0</ele><time>2026-03-23T12:47:32.052Z</time></trkpt><trkpt lat="45.16939" lon="1.5632583"><ele>113.0</ele><time>2026-03-23T12:47:34.054Z</time></trkpt><trkpt lat="45.169455" lon="1.5633483"><ele>112.99999999999999</ele><time>2026-03-23T12:47:36.058Z</time></trkpt><trkpt lat="45.1695083" lon="1.5634933"><ele>113.0</ele><time>2026-03-23T12:47:38.056Z</time></trkpt><trkpt lat="45.169545" lon="1.5635767"><ele>113.0</ele><time>2026-03-23T12:47:39.061Z</time></trkpt><trkpt lat="45.1695767" lon="1.56366"><ele>113.0</ele><time>2026-03-23T12:47:40.055Z</time></trkpt><trkpt lat="45.1695967" lon="1.5637467"><ele>112.99999999999999</ele><time>2026-03-23T12:47:41.062Z</time></trkpt><trkpt lat="45.1696033" lon="1.56392"><ele>113.0</ele><time>2026-03-23T12:47:43.054Z</time></trkpt><trkpt lat="45.16961" lon="1.564085"><ele>113.2</ele><time>2026-03-23T12:47:45.055Z</time></trkpt><trkpt lat="45.1696567" lon="1.5642167"><ele>113.4</ele><time>2026-03-23T12:47:47.057Z</time></trkpt><trkpt lat="45.1697483" lon="1.5643067"><ele>113.60000000000001</ele><time>2026-03-23T12:47:49.057Z</time></trkpt><trkpt lat="45.1698517" lon="1.5643717"><ele>113.80000000000001</ele><time>2026-03-23T12:47:51.059Z</time></trkpt><trkpt lat="45.16997" lon="1.56436"><ele>114.0</ele><time>2026-03-23T12:47:53.057Z</time></trkpt><trkpt lat="45.1700817" lon="1.5643183"><ele>114.0</ele><time>2026-03-23T12:47:55.056Z</time></trkpt><trkpt lat="45.1701883" lon="1.5642767"><ele>114.0</ele><time>2026-03-23T12:47:57.062Z</time></trkpt><trkpt lat="45.17027" lon="1.564265"><ele>114.0</ele><time>2026-03-23T12:47:59.055Z</time></trkpt><trkpt lat="45.1703217" lon="1.5643933"><ele>114.0</ele><time>2026-03-23T12:48:01.057Z</time></trkpt><trkpt lat="45.1703467" lon="1.5645583"><ele>114.0</ele><time>2026-03-23T12:48:03.056Z</time></trkpt><trkpt lat="45.1703683" lon="1.5646433"><ele>114.14285714285714</ele><time>2026-03-23T12:48:04.059Z</time></trkpt><trkpt lat="45.1703867" lon="1.564735"><ele>114.28571428571428</ele><time>2026-03-23T12:48:05.055Z</time></trkpt><trkpt lat="45.1704067" lon="1.5648317"><ele>114.42857142857142</ele><time>2026-03-23T12:48:06.053Z</time></trkpt><trkpt lat="45.17043" lon="1.564925"><ele>114.57142857142856</ele><time>2026-03-23T12:48:07.054Z</time></trkpt><trkpt lat="45.1704517" lon="1.56502"><ele>114.71428571428571</ele><time>2026-03-23T12:48:08.055Z</time></trkpt><trkpt lat="45.1704683" lon="1.5651133"><ele>114.85714285714283</ele><time>2026-03-23T12:48:09.058Z</time></trkpt><trkpt lat="45.1704817" lon="1.565205"><ele>114.99999999999999</ele><time>2026-03-23T12:48:10.058Z</time></trkpt><trkpt lat="45.17049" lon="1.5652983"><ele>115.00000000000001</ele><time>2026-03-23T12:48:11.061Z</time></trkpt><trkpt lat="45.1705083" lon="1.5653883"><ele>115.0</ele><time>2026-03-23T12:48:12.056Z</time></trkpt><trkpt lat="45.1705283" lon="1.565475"><ele>115.0</ele><time>2026-03-23T12:48:13.053Z</time></trkpt><trkpt lat="45.1705533" lon="1.5655583"><ele>115.0</ele><time>2026-03-23T12:48:14.054Z</time></trkpt><trkpt lat="45.1705967" lon="1.56572"><ele>115.00000000000001</ele><time>2026-03-23T12:48:16.064Z</time></trkpt><trkpt lat="45.1706333" lon="1.5658683"><ele>115.0</ele><time>2026-03-23T12:48:18.056Z</time></trkpt><trkpt lat="45.1706683" lon="1.566025"><ele>115.16666666666667</ele><time>2026-03-23T12:48:20.054Z</time></trkpt><trkpt lat="45.17071" lon="1.5662"><ele>115.33333333333334</ele><time>2026-03-23T12:48:22.058Z</time></trkpt><trkpt lat="45.1707383" lon="1.5662917"><ele>115.5</ele><time>2026-03-23T12:48:23.056Z</time></trkpt><trkpt lat="45.1707717" lon="1.5663767"><ele>115.66666666666666</ele><time>2026-03-23T12:48:24.063Z</time></trkpt><trkpt lat="45.170805" lon="1.5664583"><ele>115.83333333333333</ele><time>2026-03-23T12:48:25.056Z</time></trkpt><trkpt lat="45.1708417" lon="1.5665333"><ele>116.0</ele><time>2026-03-23T12:48:26.053Z</time></trkpt><trkpt lat="45.170885" lon="1.5666017"><ele>116.00000000000001</ele><time>2026-03-23T12:48:27.054Z</time></trkpt><trkpt lat="45.1709317" lon="1.5666683"><ele>116.0</ele><time>2026-03-23T12:48:28.054Z</time></trkpt><trkpt lat="45.1709767" lon="1.5667383"><ele>116.00000000000001</ele><time>2026-03-23T12:48:29.058Z</time></trkpt><trkpt lat="45.1710183" lon="1.5668117"><ele>116.00000000000001</ele><time>2026-03-23T12:48:30.054Z</time></trkpt><trkpt lat="45.1710567" lon="1.56689"><ele>116.0</ele><time>2026-03-23T12:48:31.057Z</time></trkpt><trkpt lat="45.1711" lon="1.5669617"><ele>116.00000000000001</ele><time>2026-03-23T12:48:32.051Z</time></trkpt><trkpt lat="45.1711483" lon="1.5670283"><ele>116.00000000000001</ele><time>2026-03-23T12:48:33.058Z</time></trkpt><trkpt lat="45.1711983" lon="1.5670917"><ele>115.85714285714288</ele><time>2026-03-23T12:48:34.059Z</time></trkpt><trkpt lat="45.1712483" lon="1.567155"><ele>115.71428571428572</ele><time>2026-03-23T12:48:35.054Z</time></trkpt><trkpt lat="45.171295" lon="1.56722"><ele>115.57142857142857</ele><time>2026-03-23T12:48:36.055Z</time></trkpt><trkpt lat="45.1713417" lon="1.5672833"><ele>115.42857142857143</ele><time>2026-03-23T12:48:37.054Z</time></trkpt><trkpt lat="45.17139" lon="1.5673433"><ele>115.28571428571428</ele><time>2026-03-23T12:48:38.055Z</time></trkpt><trkpt lat="45.1714833" lon="1.56746"><ele>115.14285714285712</ele><time>2026-03-23T12:48:40.055Z</time></trkpt><trkpt lat="45.1715317" lon="1.5675183"><ele>114.99999999999999</ele><time>2026-03-23T12:48:41.056Z</time></trkpt><trkpt lat="45.17158" lon="1.56758"><ele>115.33333333333334</ele><time>2026-03-23T12:48:42.054Z</time></trkpt><trkpt lat="45.1716683" lon="1.56771"><ele>115.66666666666667</ele><time>2026-03-23T12:48:44.056Z</time></trkpt><trkpt lat="45.17171" lon="1.56778"><ele>116.0</ele><time>2026-03-23T12:48:45.067Z</time></trkpt><trkpt lat="45.1717533" lon="1.567845"><ele>116.33333333333334</ele><time>2026-03-23T12:48:46.056Z</time></trkpt><trkpt lat="45.1718017" lon="1.5679067"><ele>116.66666666666667</ele><time>2026-03-23T12:48:47.059Z</time></trkpt><trkpt lat="45.1718517" lon="1.567965"><ele>117.0</ele><time>2026-03-23T12:48:48.056Z</time></trkpt><trkpt lat="45.1719" lon="1.5680267"><ele>117.0</ele><time>2026-03-23T12:48:49.057Z</time></trkpt><trkpt lat="45.1719483" lon="1.56809"><ele>117.00000000000001</ele><time>2026-03-23T12:48:50.063Z</time></trkpt><trkpt lat="45.1719983" lon="1.5681533"><ele>117.0</ele><time>2026-03-23T12:48:51.061Z</time></trkpt><trkpt lat="45.172045" lon="1.5682217"><ele>117.0</ele><time>2026-03-23T12:48:52.056Z</time></trkpt><trkpt lat="45.1720933" lon="1.5682867"><ele>117.00000000000001</ele><time>2026-03-23T12:48:53.052Z</time></trkpt><trkpt lat="45.1721417" lon="1.5683567"><ele>117.0</ele><time>2026-03-23T12:48:54.055Z</time></trkpt><trkpt lat="45.1721933" lon="1.568425"><ele>117.0</ele><time>2026-03-23T12:48:55.055Z</time></trkpt><trkpt lat="45.1722433" lon="1.5684917"><ele>117.0</ele><time>2026-03-23T12:48:56.061Z</time></trkpt><trkpt lat="45.1722917" lon="1.568555"><ele>116.99999999999999</ele><time>2026-03-23T12:48:57.057Z</time></trkpt><trkpt lat="45.1723867" lon="1.56867"><ele>116.99999999999999</ele><time>2026-03-23T12:48:59.055Z</time></trkpt><trkpt lat="45.17247" lon="1.5687867"><ele>117.0</ele><time>2026-03-23T12:49:01.054Z</time></trkpt><trkpt lat="45.1725483" lon="1.5689033"><ele>117.0</ele><time>2026-03-23T12:49:03.056Z</time></trkpt><trkpt lat="45.17263" lon="1.5690017"><ele>117.16666666666667</ele><time>2026-03-23T12:49:05.059Z</time></trkpt><trkpt lat="45.1726767" lon="1.5691117"><ele>117.33333333333334</ele><time>2026-03-23T12:49:07.058Z</time></trkpt><trkpt lat="45.1727267" lon="1.569225"><ele>117.5</ele><time>2026-03-23T12:49:09.057Z</time></trkpt><trkpt lat="45.17283" lon="1.5693333"><ele>117.66666666666667</ele><time>2026-03-23T12:49:11.055Z</time></trkpt><trkpt lat="45.17288" lon="1.5693933"><ele>117.83333333333334</ele><time>2026-03-23T12:49:12.054Z</time></trkpt><trkpt lat="45.1729317" lon="1.56946"><ele>118.0</ele><time>2026-03-23T12:49:13.054Z</time></trkpt><trkpt lat="45.17298" lon="1.5695317"><ele>117.66666666666667</ele><time>2026-03-23T12:49:14.063Z</time></trkpt><trkpt lat="45.1730333" lon="1.5695983"><ele>117.33333333333334</ele><time>2026-03-23T12:49:15.054Z</time></trkpt><trkpt lat="45.1730917" lon="1.5696667"><ele>117.0</ele><time>2026-03-23T12:49:16.054Z</time></trkpt><trkpt lat="45.1731533" lon="1.5697317"><ele>116.66666666666666</ele><time>2026-03-23T12:49:17.053Z</time></trkpt><trkpt lat="45.1732133" lon="1.5697967"><ele>116.33333333333333</ele><time>2026-03-23T12:49:18.057Z</time></trkpt><trkpt lat="45.173275" lon="1.569865"><ele>116.0</ele><time>2026-03-23T12:49:19.055Z</time></trkpt><trkpt lat="45.1733383" lon="1.5699317"><ele>116.83333333333333</ele><time>2026-03-23T12:49:20.056Z</time></trkpt><trkpt lat="45.1734033" lon="1.569995"><ele>117.66666666666666</ele><time>2026-03-23T12:49:21.058Z</time></trkpt><trkpt lat="45.1734667" lon="1.57006"><ele>118.5</ele><time>2026-03-23T12:49:22.053Z</time></trkpt><trkpt lat="45.173525" lon="1.570125"><ele>119.33333333333334</ele><time>2026-03-23T12:49:23.054Z</time></trkpt><trkpt lat="45.1735867" lon="1.5701933"><ele>120.16666666666667</ele><time>2026-03-23T12:49:24.057Z</time></trkpt><trkpt lat="45.173645" lon="1.5702617"><ele>121.0</ele><time>2026-03-23T12:49:25.059Z</time></trkpt><trkpt lat="45.1736983" lon="1.5703333"><ele>120.28571428571428</ele><time>2026-03-23T12:49:26.055Z</time></trkpt><trkpt lat="45.17375" lon="1.5704083"><ele>119.57142857142856</ele><time>2026-03-23T12:49:27.055Z</time></trkpt><trkpt lat="45.173795" lon="1.57049"><ele>118.85714285714286</ele><time>2026-03-23T12:49:28.053Z</time></trkpt><trkpt lat="45.173835" lon="1.5705783"><ele>118.14285714285714</ele><time>2026-03-23T12:49:29.059Z</time></trkpt><trkpt lat="45.1738733" lon="1.5706683"><ele>117.42857142857143</ele><time>2026-03-23T12:49:30.053Z</time></trkpt><trkpt lat="45.17391" lon="1.5707583"><ele>116.71428571428572</ele><time>2026-03-23T12:49:31.053Z</time></trkpt><trkpt lat="45.1739417" lon="1.5708583"><ele>116.00000000000001</ele><time>2026-03-23T12:49:32.057Z</time></trkpt><trkpt lat="45.1739617" lon="1.5709583"><ele>115.99999999999999</ele><time>2026-03-23T12:49:33.056Z</time></trkpt><trkpt lat="45.1739783" lon="1.5710683"><ele>116.0</ele><time>2026-03-23T12:49:34.053Z</time></trkpt><trkpt lat="45.1739917" lon="1.5711733"><ele>116.0</ele><time>2026-03-23T12:49:35.054Z</time></trkpt><trkpt lat="45.1740033" lon="1.5712767"><ele>116.0</ele><time>2026-03-23T12:49:36.057Z</time></trkpt><trkpt lat="45.1740167" lon="1.5713817"><ele>115.99999999999999</ele><time>2026-03-23T12:49:37.056Z</time></trkpt><trkpt lat="45.17403" lon="1.571485"><ele>116.0</ele><time>2026-03-23T12:49:38.065Z</time></trkpt><trkpt lat="45.1740417" lon="1.5715917"><ele>116.42857142857144</ele><time>2026-03-23T12:49:39.06Z</time></trkpt><trkpt lat="45.174055" lon="1.5716967"><ele>116.85714285714286</ele><time>2026-03-23T12:49:40.054Z</time></trkpt><trkpt lat="45.17407" lon="1.5718"><ele>117.28571428571429</ele><time>2026-03-23T12:49:41.054Z</time></trkpt><trkpt lat="45.1740817" lon="1.5719"><ele>117.71428571428572</ele><time>2026-03-23T12:49:42.054Z</time></trkpt><trkpt lat="45.1740967" lon="1.572"><ele>118.14285714285714</ele><time>2026-03-23T12:49:43.054Z</time></trkpt><trkpt lat="45.174105" lon="1.5721033"><ele>118.57142857142857</ele><time>2026-03-23T12:49:44.056Z</time></trkpt><trkpt lat="45.1741133" lon="1.572205"><ele>119.0</ele><time>2026-03-23T12:49:45.054Z</time></trkpt><trkpt lat="45.174125" lon="1.5723067"><ele>119.0</ele><time>2026-03-23T12:49:46.058Z</time></trkpt><trkpt lat="45.17414" lon="1.5724033"><ele>119.0</ele><time>2026-03-23T12:49:47.055Z</time></trkpt><trkpt lat="45.1741533" lon="1.5725"><ele>119.0</ele><time>2026-03-23T12:49:48.054Z</time></trkpt><trkpt lat="45.174165" lon="1.5725967"><ele>119.0</ele><time>2026-03-23T12:49:49.056Z</time></trkpt><trkpt lat="45.1741817" lon="1.5726917"><ele>119.0</ele><time>2026-03-23T12:49:50.055Z</time></trkpt><trkpt lat="45.1742017" lon="1.572785"><ele>119.0</ele><time>2026-03-23T12:49:51.057Z</time></trkpt><trkpt lat="45.1742233" lon="1.572875"><ele>119.0</ele><time>2026-03-23T12:49:52.054Z</time></trkpt><trkpt lat="45.1742517" lon="1.5729683"><ele>119.0</ele><time>2026-03-23T12:49:53.064Z</time></trkpt><trkpt lat="45.1742767" lon="1.5730633"><ele>119.0</ele><time>2026-03-23T12:49:54.059Z</time></trkpt><trkpt lat="45.1742983" lon="1.5731617"><ele>119.0</ele><time>2026-03-23T12:49:55.055Z</time></trkpt><trkpt lat="45.174315" lon="1.5732617"><ele>119.0</ele><time>2026-03-23T12:49:56.055Z</time></trkpt><trkpt lat="45.1743317" lon="1.5733617"><ele>119.0</ele><time>2026-03-23T12:49:57.059Z</time></trkpt><trkpt lat="45.17435" lon="1.5734617"><ele>119.0</ele><time>2026-03-23T12:49:58.054Z</time></trkpt><trkpt lat="45.17437" lon="1.57356"><ele>119.0</ele><time>2026-03-23T12:49:59.065Z</time></trkpt><trkpt lat="45.17439" lon="1.5736583"><ele>118.85714285714286</ele><time>2026-03-23T12:50:00.054Z</time></trkpt><trkpt lat="45.1744117" lon="1.5737567"><ele>118.71428571428572</ele><time>2026-03-23T12:50:01.052Z</time></trkpt><trkpt lat="45.1744283" lon="1.573855"><ele>118.57142857142857</ele><time>2026-03-23T12:50:02.054Z</time></trkpt><trkpt lat="45.1744467" lon="1.5739517"><ele>118.42857142857143</ele><time>2026-03-23T12:50:03.058Z</time></trkpt><trkpt lat="45.1744683" lon="1.5740433"><ele>118.28571428571429</ele><time>2026-03-23T12:50:04.057Z</time></trkpt><trkpt lat="45.1744817" lon="1.5741417"><ele>118.14285714285714</ele><time>2026-03-23T12:50:05.059Z</time></trkpt><trkpt lat="45.174495" lon="1.5742433"><ele>118.0</ele><time>2026-03-23T12:50:06.057Z</time></trkpt><trkpt lat="45.174505" lon="1.574345"><ele>118.0</ele><time>2026-03-23T12:50:07.055Z</time></trkpt><trkpt lat="45.174515" lon="1.5744433"><ele>118.0</ele><time>2026-03-23T12:50:08.054Z</time></trkpt><trkpt lat="45.1745233" lon="1.5745417"><ele>118.0</ele><time>2026-03-23T12:50:09.055Z</time></trkpt><trkpt lat="45.1745317" lon="1.5746383"><ele>118.0</ele><time>2026-03-23T12:50:10.053Z</time></trkpt><trkpt lat="45.1745367" lon="1.574735"><ele>118.0</ele><time>2026-03-23T12:50:11.054Z</time></trkpt><trkpt lat="45.17454" lon="1.574835"><ele>118.0</ele><time>2026-03-23T12:50:12.055Z</time></trkpt><trkpt lat="45.1745417" lon="1.574935"><ele>118.0</ele><time>2026-03-23T12:50:13.054Z</time></trkpt><trkpt lat="45.174545" lon="1.5750383"><ele>117.85714285714286</ele><time>2026-03-23T12:50:14.06Z</time></trkpt><trkpt lat="45.1745467" lon="1.5751433"><ele>117.71428571428572</ele><time>2026-03-23T12:50:15.054Z</time></trkpt><trkpt lat="45.1745467" lon="1.5752483"><ele>117.57142857142858</ele><time>2026-03-23T12:50:16.053Z</time></trkpt><trkpt lat="45.1745483" lon="1.5753533"><ele>117.42857142857143</ele><time>2026-03-23T12:50:17.058Z</time></trkpt><trkpt lat="45.17455" lon="1.5754567"><ele>117.2857142857143</ele><time>2026-03-23T12:50:18.056Z</time></trkpt><trkpt lat="45.17455" lon="1.5755583"><ele>117.14285714285715</ele><time>2026-03-23T12:50:19.053Z</time></trkpt><trkpt lat="45.1745517" lon="1.57566"><ele>117.0</ele><time>2026-03-23T12:50:20.059Z</time></trkpt><trkpt lat="45.1745517" lon="1.5757617"><ele>117.0</ele><time>2026-03-23T12:50:21.053Z</time></trkpt><trkpt lat="45.1745533" lon="1.5758633"><ele>117.00000000000001</ele><time>2026-03-23T12:50:22.054Z</time></trkpt><trkpt lat="45.1745533" lon="1.5759633"><ele>117.0</ele><time>2026-03-23T12:50:23.054Z</time></trkpt><trkpt lat="45.1745533" lon="1.576065"><ele>117.0</ele><time>2026-03-23T12:50:24.054Z</time></trkpt><trkpt lat="45.1745483" lon="1.5761683"><ele>117.00000000000001</ele><time>2026-03-23T12:50:25.055Z</time></trkpt><trkpt lat="45.17455" lon="1.5762717"><ele>117.0</ele><time>2026-03-23T12:50:26.06Z</time></trkpt><trkpt lat="45.1745517" lon="1.5763733"><ele>117.0</ele><time>2026-03-23T12:50:27.055Z</time></trkpt><trkpt lat="45.1745533" lon="1.5764767"><ele>116.85714285714286</ele><time>2026-03-23T12:50:28.055Z</time></trkpt><trkpt lat="45.17456" lon="1.57658"><ele>116.71428571428572</ele><time>2026-03-23T12:50:29.053Z</time></trkpt><trkpt lat="45.1745717" lon="1.5766817"><ele>116.57142857142858</ele><time>2026-03-23T12:50:30.057Z</time></trkpt><trkpt lat="45.1745783" lon="1.5767867"><ele>116.42857142857144</ele><time>2026-03-23T12:50:31.058Z</time></trkpt><trkpt lat="45.1745883" lon="1.5768917"><ele>116.28571428571429</ele><time>2026-03-23T12:50:32.055Z</time></trkpt><trkpt lat="45.1746" lon="1.5769967"><ele>116.14285714285717</ele><time>2026-03-23T12:50:33.06Z</time></trkpt><trkpt lat="45.1746017" lon="1.5771017"><ele>116.00000000000001</ele><time>2026-03-23T12:50:34.054Z</time></trkpt><trkpt lat="45.174605" lon="1.5772083"><ele>116.00000000000001</ele><time>2026-03-23T12:50:35.054Z</time></trkpt><trkpt lat="45.1746183" lon="1.57731"><ele>116.0</ele><time>2026-03-23T12:50:36.054Z</time></trkpt><trkpt lat="45.1746333" lon="1.5774117"><ele>116.00000000000001</ele><time>2026-03-23T12:50:37.051Z</time></trkpt><trkpt lat="45.1746417" lon="1.577515"><ele>116.00000000000001</ele><time>2026-03-23T12:50:38.061Z</time></trkpt><trkpt lat="45.1746483" lon="1.57762"><ele>116.0</ele><time>2026-03-23T12:50:39.055Z</time></trkpt><trkpt lat="45.1746533" lon="1.577725"><ele>116.00000000000001</ele><time>2026-03-23T12:50:40.054Z</time></trkpt><trkpt lat="45.1746683" lon="1.57783"><ele>116.00000000000001</ele><time>2026-03-23T12:50:41.054Z</time></trkpt><trkpt lat="45.174685" lon="1.5779367"><ele>116.00000000000001</ele><time>2026-03-23T12:50:42.056Z</time></trkpt><trkpt lat="45.1747033" lon="1.57804"><ele>116.0</ele><time>2026-03-23T12:50:43.055Z</time></trkpt><trkpt lat="45.17473" lon="1.5781367"><ele>116.00000000000001</ele><time>2026-03-23T12:50:44.054Z</time></trkpt><trkpt lat="45.1747583" lon="1.578235"><ele>116.00000000000001</ele><time>2026-03-23T12:50:45.063Z</time></trkpt><trkpt lat="45.1747833" lon="1.5783317"><ele>116.0</ele><time>2026-03-23T12:50:46.055Z</time></trkpt><trkpt lat="45.1748083" lon="1.5784283"><ele>116.00000000000001</ele><time>2026-03-23T12:50:47.053Z</time></trkpt><trkpt lat="45.1748367" lon="1.5785233"><ele>116.00000000000001</ele><time>2026-03-23T12:50:48.054Z</time></trkpt><trkpt lat="45.17486" lon="1.5786217"><ele>116.2857142857143</ele><time>2026-03-23T12:50:49.053Z</time></trkpt><trkpt lat="45.1748817" lon="1.5787233"><ele>116.57142857142858</ele><time>2026-03-23T12:50:50.057Z</time></trkpt><trkpt lat="45.174905" lon="1.578825"><ele>116.85714285714286</ele><time>2026-03-23T12:50:51.066Z</time></trkpt><trkpt lat="45.1749317" lon="1.5789233"><ele>117.14285714285715</ele><time>2026-03-23T12:50:52.058Z</time></trkpt><trkpt lat="45.1749567" lon="1.5790217"><ele>117.42857142857144</ele><time>2026-03-23T12:50:53.061Z</time></trkpt><trkpt lat="45.1749817" lon="1.5791183"><ele>117.71428571428571</ele><time>2026-03-23T12:50:54.058Z</time></trkpt><trkpt lat="45.1750133" lon="1.5792133"><ele>118.0</ele><time>2026-03-23T12:50:55.055Z</time></trkpt><trkpt lat="45.1750417" lon="1.5793083"><ele>118.0</ele><time>2026-03-23T12:50:56.055Z</time></trkpt><trkpt lat="45.1750717" lon="1.5794017"><ele>118.0</ele><time>2026-03-23T12:50:57.055Z</time></trkpt><trkpt lat="45.1751017" lon="1.579495"><ele>118.0</ele><time>2026-03-23T12:50:58.06Z</time></trkpt><trkpt lat="45.1751317" lon="1.57959"><ele>118.0</ele><time>2026-03-23T12:50:59.055Z</time></trkpt><trkpt lat="45.1751633" lon="1.579685"><ele>118.0</ele><time>2026-03-23T12:51:00.055Z</time></trkpt><trkpt lat="45.175195" lon="1.57978"><ele>118.0</ele><time>2026-03-23T12:51:01.053Z</time></trkpt><trkpt lat="45.175225" lon="1.579875"><ele>118.0</ele><time>2026-03-23T12:51:02.053Z</time></trkpt><trkpt lat="45.1752583" lon="1.5799683"><ele>118.0</ele><time>2026-03-23T12:51:03.058Z</time></trkpt><trkpt lat="45.1752883" lon="1.5800617"><ele>118.0</ele><time>2026-03-23T12:51:04.054Z</time></trkpt><trkpt lat="45.17532" lon="1.580155"><ele>118.0</ele><time>2026-03-23T12:51:05.061Z</time></trkpt><trkpt lat="45.1753533" lon="1.5802467"><ele>118.0</ele><time>2026-03-23T12:51:06.058Z</time></trkpt><trkpt lat="45.1753833" lon="1.5803367"><ele>118.0</ele><time>2026-03-23T12:51:07.056Z</time></trkpt><trkpt lat="45.1754117" lon="1.5804283"><ele>118.0</ele><time>2026-03-23T12:51:08.056Z</time></trkpt><trkpt lat="45.17544" lon="1.5805233"><ele>118.0</ele><time>2026-03-23T12:51:09.056Z</time></trkpt><trkpt lat="45.1754733" lon="1.5806183"><ele>118.0</ele><time>2026-03-23T12:51:10.054Z</time></trkpt><trkpt lat="45.1755017" lon="1.5807167"><ele>118.0</ele><time>2026-03-23T12:51:11.056Z</time></trkpt><trkpt lat="45.17553" lon="1.580815"><ele>118.0</ele><time>2026-03-23T12:51:12.055Z</time></trkpt><trkpt lat="45.1755633" lon="1.58091"><ele>118.0</ele><time>2026-03-23T12:51:13.055Z</time></trkpt><trkpt lat="45.1755967" lon="1.581005"><ele>118.0</ele><time>2026-03-23T12:51:14.058Z</time></trkpt><trkpt lat="45.1756267" lon="1.5810983"><ele>118.0</ele><time>2026-03-23T12:51:15.058Z</time></trkpt><trkpt lat="45.175655" lon="1.5811933"><ele>118.0</ele><time>2026-03-23T12:51:16.053Z</time></trkpt><trkpt lat="45.1756883" lon="1.581285"><ele>118.28571428571428</ele><time>2026-03-23T12:51:17.052Z</time></trkpt><trkpt lat="45.1757217" lon="1.5813783"><ele>118.57142857142858</ele><time>2026-03-23T12:51:18.06Z</time></trkpt><trkpt lat="45.1757567" lon="1.5814733"><ele>118.85714285714286</ele><time>2026-03-23T12:51:19.055Z</time></trkpt><trkpt lat="45.1757883" lon="1.5815683"><ele>119.14285714285714</ele><time>2026-03-23T12:51:20.057Z</time></trkpt><trkpt lat="45.1758183" lon="1.5816617"><ele>119.42857142857142</ele><time>2026-03-23T12:51:21.057Z</time></trkpt><trkpt lat="45.1758483" lon="1.5817583"><ele>119.71428571428572</ele><time>2026-03-23T12:51:22.054Z</time></trkpt><trkpt lat="45.1758817" lon="1.5818517"><ele>120.0</ele><time>2026-03-23T12:51:23.06Z</time></trkpt><trkpt lat="45.1759117" lon="1.5819483"><ele>119.85714285714286</ele><time>2026-03-23T12:51:24.056Z</time></trkpt><trkpt lat="45.175945" lon="1.5820433"><ele>119.71428571428571</ele><time>2026-03-23T12:51:25.055Z</time></trkpt><trkpt lat="45.175975" lon="1.58214"><ele>119.57142857142857</ele><time>2026-03-23T12:51:26.056Z</time></trkpt><trkpt lat="45.176005" lon="1.5822333"><ele>119.42857142857143</ele><time>2026-03-23T12:51:27.056Z</time></trkpt><trkpt lat="45.1760317" lon="1.58233"><ele>119.28571428571428</ele><time>2026-03-23T12:51:28.055Z</time></trkpt><trkpt lat="45.1760567" lon="1.582425"><ele>119.14285714285714</ele><time>2026-03-23T12:51:29.055Z</time></trkpt><trkpt lat="45.1760833" lon="1.58252"><ele>119.0</ele><time>2026-03-23T12:51:30.054Z</time></trkpt><trkpt lat="45.1761117" lon="1.5826133"><ele>119.0</ele><time>2026-03-23T12:51:31.059Z</time></trkpt><trkpt lat="45.17614" lon="1.582705"><ele>119.0</ele><time>2026-03-23T12:51:32.054Z</time></trkpt><trkpt lat="45.1761683" lon="1.5828"><ele>119.0</ele><time>2026-03-23T12:51:33.058Z</time></trkpt><trkpt lat="45.176195" lon="1.582895"><ele>119.0</ele><time>2026-03-23T12:51:34.053Z</time></trkpt><trkpt lat="45.176225" lon="1.582995"><ele>119.0</ele><time>2026-03-23T12:51:35.055Z</time></trkpt><trkpt lat="45.1762517" lon="1.5830917"><ele>119.0</ele><time>2026-03-23T12:51:36.055Z</time></trkpt><trkpt lat="45.176275" lon="1.5831867"><ele>119.0</ele><time>2026-03-23T12:51:37.054Z</time></trkpt><trkpt lat="45.1763" lon="1.583285"><ele>118.85714285714286</ele><time>2026-03-23T12:51:38.055Z</time></trkpt><trkpt lat="45.1763233" lon="1.58338"><ele>118.71428571428572</ele><time>2026-03-23T12:51:39.056Z</time></trkpt><trkpt lat="45.1763467" lon="1.5834767"><ele>118.57142857142857</ele><time>2026-03-23T12:51:40.055Z</time></trkpt><trkpt lat="45.1763683" lon="1.5835733"><ele>118.42857142857143</ele><time>2026-03-23T12:51:41.056Z</time></trkpt><trkpt lat="45.176385" lon="1.5836717"><ele>118.28571428571429</ele><time>2026-03-23T12:51:42.057Z</time></trkpt><trkpt lat="45.1764" lon="1.5837717"><ele>118.14285714285714</ele><time>2026-03-23T12:51:43.055Z</time></trkpt><trkpt lat="45.1764167" lon="1.5838717"><ele>118.0</ele><time>2026-03-23T12:51:44.055Z</time></trkpt><trkpt lat="45.176435" lon="1.5839717"><ele>118.0</ele><time>2026-03-23T12:51:45.055Z</time></trkpt><trkpt lat="45.1764533" lon="1.5840733"><ele>118.0</ele><time>2026-03-23T12:51:46.056Z</time></trkpt><trkpt lat="45.17647" lon="1.5841717"><ele>118.0</ele><time>2026-03-23T12:51:47.055Z</time></trkpt><trkpt lat="45.1764867" lon="1.5842717"><ele>118.0</ele><time>2026-03-23T12:51:48.064Z</time></trkpt><trkpt lat="45.1765017" lon="1.5843683"><ele>118.0</ele><time>2026-03-23T12:51:49.054Z</time></trkpt><trkpt lat="45.1765133" lon="1.5844683"><ele>118.0</ele><time>2026-03-23T12:51:50.055Z</time></trkpt><trkpt lat="45.1765317" lon="1.5845733"><ele>118.0</ele><time>2026-03-23T12:51:51.058Z</time></trkpt><trkpt lat="45.1765533" lon="1.58467"><ele>118.0</ele><time>2026-03-23T12:51:52.054Z</time></trkpt><trkpt lat="45.176575" lon="1.5847717"><ele>118.0</ele><time>2026-03-23T12:51:53.059Z</time></trkpt><trkpt lat="45.1765933" lon="1.5848717"><ele>118.0</ele><time>2026-03-23T12:51:54.056Z</time></trkpt><trkpt lat="45.1766117" lon="1.5849733"><ele>118.0</ele><time>2026-03-23T12:51:55.069Z</time></trkpt><trkpt lat="45.1766283" lon="1.585075"><ele>118.0</ele><time>2026-03-23T12:51:56.053Z</time></trkpt><trkpt lat="45.1766433" lon="1.5851767"><ele>118.0</ele><time>2026-03-23T12:51:57.06Z</time></trkpt><trkpt lat="45.17666" lon="1.5852767"><ele>118.0</ele><time>2026-03-23T12:51:58.058Z</time></trkpt><trkpt lat="45.1766767" lon="1.5853783"><ele>118.0</ele><time>2026-03-23T12:51:59.054Z</time></trkpt><trkpt lat="45.1766933" lon="1.58548"><ele>118.0</ele><time>2026-03-23T12:52:00.056Z</time></trkpt><trkpt lat="45.1767117" lon="1.5855817"><ele>118.0</ele><time>2026-03-23T12:52:01.059Z</time></trkpt><trkpt lat="45.1767283" lon="1.5856833"><ele>118.0</ele><time>2026-03-23T12:52:02.059Z</time></trkpt><trkpt lat="45.1767483" lon="1.5857817"><ele>118.0</ele><time>2026-03-23T12:52:03.066Z</time></trkpt><trkpt lat="45.176765" lon="1.585885"><ele>118.0</ele><time>2026-03-23T12:52:04.056Z</time></trkpt><trkpt lat="45.1767867" lon="1.5859883"><ele>118.0</ele><time>2026-03-23T12:52:05.056Z</time></trkpt><trkpt lat="45.176805" lon="1.58609"><ele>118.14285714285714</ele><time>2026-03-23T12:52:06.058Z</time></trkpt><trkpt lat="45.17682" lon="1.5861917"><ele>118.28571428571429</ele><time>2026-03-23T12:52:07.058Z</time></trkpt><trkpt lat="45.1768333" lon="1.5862933"><ele>118.42857142857143</ele><time>2026-03-23T12:52:08.056Z</time></trkpt><trkpt lat="45.1768517" lon="1.5863933"><ele>118.57142857142857</ele><time>2026-03-23T12:52:09.071Z</time></trkpt><trkpt lat="45.1768717" lon="1.5864933"><ele>118.71428571428572</ele><time>2026-03-23T12:52:10.054Z</time></trkpt><trkpt lat="45.1768917" lon="1.5865933"><ele>118.85714285714286</ele><time>2026-03-23T12:52:11.055Z</time></trkpt><trkpt lat="45.1769083" lon="1.5866917"><ele>119.0</ele><time>2026-03-23T12:52:12.059Z</time></trkpt><trkpt lat="45.176925" lon="1.5867917"><ele>119.0</ele><time>2026-03-23T12:52:13.06Z</time></trkpt><trkpt lat="45.1769417" lon="1.58689"><ele>119.0</ele><time>2026-03-23T12:52:14.065Z</time></trkpt><trkpt lat="45.17696" lon="1.5869867"><ele>119.0</ele><time>2026-03-23T12:52:15.057Z</time></trkpt><trkpt lat="45.17698" lon="1.587085"><ele>119.0</ele><time>2026-03-23T12:52:16.058Z</time></trkpt><trkpt lat="45.1769967" lon="1.5871833"><ele>119.0</ele><time>2026-03-23T12:52:17.057Z</time></trkpt><trkpt lat="45.17701" lon="1.587285"><ele>119.0</ele><time>2026-03-23T12:52:18.059Z</time></trkpt><trkpt lat="45.17703" lon="1.5873833"><ele>119.0</ele><time>2026-03-23T12:52:19.059Z</time></trkpt><trkpt lat="45.177045" lon="1.58748"><ele>119.14285714285714</ele><time>2026-03-23T12:52:20.054Z</time></trkpt><trkpt lat="45.1770617" lon="1.58758"><ele>119.28571428571428</ele><time>2026-03-23T12:52:21.059Z</time></trkpt><trkpt lat="45.17708" lon="1.5876783"><ele>119.42857142857143</ele><time>2026-03-23T12:52:22.058Z</time></trkpt><trkpt lat="45.1770967" lon="1.587775"><ele>119.57142857142857</ele><time>2026-03-23T12:52:23.056Z</time></trkpt><trkpt lat="45.1771217" lon="1.5878683"><ele>119.71428571428571</ele><time>2026-03-23T12:52:24.066Z</time></trkpt><trkpt lat="45.177145" lon="1.5879617"><ele>119.85714285714286</ele><time>2026-03-23T12:52:25.06Z</time></trkpt><trkpt lat="45.1771617" lon="1.58806"><ele>120.0</ele><time>2026-03-23T12:52:26.061Z</time></trkpt><trkpt lat="45.177175" lon="1.58816"><ele>120.0</ele><time>2026-03-23T12:52:27.062Z</time></trkpt><trkpt lat="45.1771933" lon="1.5882583"><ele>120.0</ele><time>2026-03-23T12:52:28.059Z</time></trkpt><trkpt lat="45.17721" lon="1.5883583"><ele>120.0</ele><time>2026-03-23T12:52:29.054Z</time></trkpt><trkpt lat="45.17723" lon="1.5884567"><ele>120.0</ele><time>2026-03-23T12:52:30.059Z</time></trkpt><trkpt lat="45.1772467" lon="1.588555"><ele>120.0</ele><time>2026-03-23T12:52:31.058Z</time></trkpt><trkpt lat="45.177265" lon="1.5886567"><ele>120.0</ele><time>2026-03-23T12:52:32.058Z</time></trkpt><trkpt lat="45.177285" lon="1.5887567"><ele>120.0</ele><time>2026-03-23T12:52:33.056Z</time></trkpt><trkpt lat="45.1773017" lon="1.5888567"><ele>119.85714285714286</ele><time>2026-03-23T12:52:34.059Z</time></trkpt><trkpt lat="45.177315" lon="1.5889567"><ele>119.71428571428571</ele><time>2026-03-23T12:52:35.055Z</time></trkpt><trkpt lat="45.17733" lon="1.589055"><ele>119.57142857142857</ele><time>2026-03-23T12:52:36.056Z</time></trkpt><trkpt lat="45.1773467" lon="1.589155"><ele>119.42857142857143</ele><time>2026-03-23T12:52:37.057Z</time></trkpt><trkpt lat="45.177355" lon="1.589255"><ele>119.28571428571428</ele><time>2026-03-23T12:52:38.056Z</time></trkpt><trkpt lat="45.1773717" lon="1.5893517"><ele>119.14285714285714</ele><time>2026-03-23T12:52:39.061Z</time></trkpt><trkpt lat="45.1773867" lon="1.5894417"><ele>119.0</ele><time>2026-03-23T12:52:40.057Z</time></trkpt><trkpt lat="45.1774033" lon="1.5895283"><ele>119.0</ele><time>2026-03-23T12:52:41.057Z</time></trkpt><trkpt lat="45.17743" lon="1.5896967"><ele>119.0</ele><time>2026-03-23T12:52:43.053Z</time></trkpt><trkpt lat="45.1774517" lon="1.5898483"><ele>119.0</ele><time>2026-03-23T12:52:45.056Z</time></trkpt><trkpt lat="45.1774467" lon="1.58998"><ele>119.0</ele><time>2026-03-23T12:52:47.057Z</time></trkpt><trkpt lat="45.1773783" lon="1.5900467"><ele>119.0</ele><time>2026-03-23T12:52:49.058Z</time></trkpt><trkpt lat="45.17729" lon="1.59004"><ele>119.0</ele><time>2026-03-23T12:52:51.058Z</time></trkpt><trkpt lat="45.1772033" lon="1.5900333"><ele>119.0</ele><time>2026-03-23T12:52:53.055Z</time></trkpt><trkpt lat="45.17712" lon="1.5900417"><ele>119.0</ele><time>2026-03-23T12:52:55.055Z</time></trkpt><trkpt lat="45.177045" lon="1.59006"><ele>119.0</ele><time>2026-03-23T12:52:57.058Z</time></trkpt><trkpt lat="45.17696" lon="1.5900817"><ele>119.0</ele><time>2026-03-23T12:53:00.058Z</time></trkpt><trkpt lat="45.177" lon="1.5899967"><ele>119.0</ele><time>2026-03-23T12:53:25.061Z</time></trkpt></trkseg></trk></gpx>